sensor_id;sensor_type;location;lat;lon;timestamp;P1;durP1;ratioP1;P2;durP2;ratioP2
33184;SDS011;19550;42.872;25.494;2023-04-25T00:01:29;20.65;;;13.23;;
33184;SDS011;19550;42.872;25.494;2023-04-25T00:03:57;15.73;;;12.63;;
33184;SDS011;19550;42.872;25.494;2023-04-25T00:06:23;21.60;;;12.93;;
33184;SDS011;19550;42.872;25.494;2023-04-25T00:08:51;15.57;;;12.57;;
33184;SDS011;19550;42.872;25.494;2023-04-25T00:11:19;21.38;;;13.15;;
33184;SDS011;19550;42.872;25.494;2023-04-25T00:13:46;17.23;;;13.23;;
33184;SDS011;19550;42.872;25.494;2023-04-25T00:16:14;18.25;;;14.27;;
33184;SDS011;19550;42.872;25.494;2023-04-25T00:18:41;16.27;;;12.68;;
33184;SDS011;19550;42.872;25.494;2023-04-25T00:21:08;16.80;;;12.73;;
33184;SDS011;19550;42.872;25.494;2023-04-25T00:23:35;20.25;;;13.25;;
33184;SDS011;19550;42.872;25.494;2023-04-25T00:26:03;18.13;;;13.02;;
33184;SDS011;19550;42.872;25.494;2023-04-25T00:28:32;16.70;;;13.05;;
33184;SDS011;19550;42.872;25.494;2023-04-25T00:30:58;19.52;;;12.80;;
33184;SDS011;19550;42.872;25.494;2023-04-25T00:33:25;21.85;;;13.73;;
33184;SDS011;19550;42.872;25.494;2023-04-25T00:35:52;19.63;;;13.13;;
33184;SDS011;19550;42.872;25.494;2023-04-25T00:38:19;19.52;;;13.68;;
33184;SDS011;19550;42.872;25.494;2023-04-25T00:40:46;16.52;;;12.65;;
33184;SDS011;19550;42.872;25.494;2023-04-25T00:43:13;21.20;;;12.80;;
33184;SDS011;19550;42.872;25.494;2023-04-25T00:45:41;20.23;;;12.73;;
33184;SDS011;19550;42.872;25.494;2023-04-25T00:48:09;15.35;;;12.30;;
33184;SDS011;19550;42.872;25.494;2023-04-25T00:50:37;17.63;;;12.20;;
33184;SDS011;19550;42.872;25.494;2023-04-25T00:53:04;17.17;;;12.43;;
33184;SDS011;19550;42.872;25.494;2023-04-25T00:55:31;19.60;;;13.52;;
33184;SDS011;19550;42.872;25.494;2023-04-25T00:57:59;14.75;;;11.63;;
33184;SDS011;19550;42.872;25.494;2023-04-25T01:00:26;15.85;;;11.95;;
33184;SDS011;19550;42.872;25.494;2023-04-25T01:02:54;18.23;;;12.20;;
33184;SDS011;19550;42.872;25.494;2023-04-25T01:05:21;14.85;;;11.48;;
33184;SDS011;19550;42.872;25.494;2023-04-25T01:07:48;18.52;;;12.48;;
33184;SDS011;19550;42.872;25.494;2023-04-25T01:10:15;22.40;;;13.45;;
33184;SDS011;19550;42.872;25.494;2023-04-25T01:12:42;18.25;;;14.40;;
33184;SDS011;19550;42.872;25.494;2023-04-25T01:15:09;19.52;;;14.43;;
33184;SDS011;19550;42.872;25.494;2023-04-25T01:17:36;20.85;;;14.02;;
33184;SDS011;19550;42.872;25.494;2023-04-25T01:20:06;18.45;;;13.30;;
33184;SDS011;19550;42.872;25.494;2023-04-25T01:22:37;18.42;;;13.55;;
33184;SDS011;19550;42.872;25.494;2023-04-25T01:25:04;17.65;;;13.38;;
33184;SDS011;19550;42.872;25.494;2023-04-25T01:27:31;20.80;;;12.90;;
33184;SDS011;19550;42.872;25.494;2023-04-25T01:29:58;21.55;;;14.77;;
33184;SDS011;19550;42.872;25.494;2023-04-25T01:32:26;16.58;;;12.90;;
33184;SDS011;19550;42.872;25.494;2023-04-25T01:34:53;18.08;;;13.25;;
33184;SDS011;19550;42.872;25.494;2023-04-25T01:37:20;17.63;;;13.13;;
33184;SDS011;19550;42.872;25.494;2023-04-25T01:39:48;17.08;;;13.02;;
33184;SDS011;19550;42.872;25.494;2023-04-25T01:42:15;17.27;;;14.00;;
33184;SDS011;19550;42.872;25.494;2023-04-25T01:44:42;21.05;;;14.07;;
33184;SDS011;19550;42.872;25.494;2023-04-25T01:47:09;18.80;;;14.55;;
33184;SDS011;19550;42.872;25.494;2023-04-25T01:49:36;19.80;;;13.88;;
33184;SDS011;19550;42.872;25.494;2023-04-25T01:52:03;18.17;;;13.93;;
33184;SDS011;19550;42.872;25.494;2023-04-25T01:54:30;21.40;;;14.25;;
33184;SDS011;19550;42.872;25.494;2023-04-25T01:56:58;32.55;;;12.77;;
33184;SDS011;19550;42.872;25.494;2023-04-25T01:59:25;19.88;;;13.77;;
33184;SDS011;19550;42.872;25.494;2023-04-25T02:01:52;22.90;;;13.75;;
33184;SDS011;19550;42.872;25.494;2023-04-25T02:04:19;19.17;;;13.82;;
33184;SDS011;19550;42.872;25.494;2023-04-25T02:06:45;17.90;;;13.27;;
33184;SDS011;19550;42.872;25.494;2023-04-25T02:09:12;19.40;;;14.90;;
33184;SDS011;19550;42.872;25.494;2023-04-25T02:11:39;20.88;;;15.48;;
33184;SDS011;19550;42.872;25.494;2023-04-25T02:14:07;18.42;;;14.60;;
33184;SDS011;19550;42.872;25.494;2023-04-25T02:16:34;22.38;;;14.43;;
33184;SDS011;19550;42.872;25.494;2023-04-25T02:19:01;21.38;;;14.40;;
33184;SDS011;19550;42.872;25.494;2023-04-25T02:21:28;19.73;;;15.60;;
33184;SDS011;19550;42.872;25.494;2023-04-25T02:23:55;24.40;;;14.65;;
33184;SDS011;19550;42.872;25.494;2023-04-25T02:26:22;17.25;;;14.07;;
33184;SDS011;19550;42.872;25.494;2023-04-25T02:28:50;17.23;;;14.13;;
33184;SDS011;19550;42.872;25.494;2023-04-25T02:31:18;21.23;;;13.95;;
33184;SDS011;19550;42.872;25.494;2023-04-25T02:33:45;18.98;;;13.60;;
33184;SDS011;19550;42.872;25.494;2023-04-25T02:36:11;21.55;;;14.63;;
33184;SDS011;19550;42.872;25.494;2023-04-25T02:38:38;20.20;;;14.30;;
33184;SDS011;19550;42.872;25.494;2023-04-25T02:41:05;20.40;;;13.73;;
33184;SDS011;19550;42.872;25.494;2023-04-25T02:43:32;20.98;;;13.02;;
33184;SDS011;19550;42.872;25.494;2023-04-25T02:45:59;18.05;;;13.48;;
33184;SDS011;19550;42.872;25.494;2023-04-25T02:48:27;16.55;;;13.23;;
33184;SDS011;19550;42.872;25.494;2023-04-25T02:50:54;19.77;;;14.32;;
33184;SDS011;19550;42.872;25.494;2023-04-25T02:53:21;18.75;;;12.20;;
33184;SDS011;19550;42.872;25.494;2023-04-25T02:55:48;25.80;;;12.70;;
33184;SDS011;19550;42.872;25.494;2023-04-25T02:58:14;18.02;;;12.88;;
33184;SDS011;19550;42.872;25.494;2023-04-25T03:00:42;21.08;;;12.02;;
33184;SDS011;19550;42.872;25.494;2023-04-25T03:03:10;19.25;;;12.85;;
33184;SDS011;19550;42.872;25.494;2023-04-25T03:05:38;14.90;;;11.02;;
33184;SDS011;19550;42.872;25.494;2023-04-25T03:08:05;15.65;;;12.10;;
33184;SDS011;19550;42.872;25.494;2023-04-25T03:10:32;16.83;;;11.60;;
33184;SDS011;19550;42.872;25.494;2023-04-25T03:12:58;14.45;;;11.15;;
33184;SDS011;19550;42.872;25.494;2023-04-25T03:15:25;16.67;;;10.70;;
33184;SDS011;19550;42.872;25.494;2023-04-25T03:17:52;15.35;;;11.65;;
33184;SDS011;19550;42.872;25.494;2023-04-25T03:20:20;18.42;;;12.05;;
33184;SDS011;19550;42.872;25.494;2023-04-25T03:22:48;18.25;;;11.85;;
33184;SDS011;19550;42.872;25.494;2023-04-25T03:25:15;15.40;;;11.30;;
33184;SDS011;19550;42.872;25.494;2023-04-25T03:27:42;14.80;;;11.00;;
33184;SDS011;19550;42.872;25.494;2023-04-25T03:30:09;16.02;;;10.60;;
33184;SDS011;19550;42.872;25.494;2023-04-25T03:32:36;12.93;;;9.90;;
33184;SDS011;19550;42.872;25.494;2023-04-25T03:35:03;12.98;;;10.57;;
33184;SDS011;19550;42.872;25.494;2023-04-25T03:37:31;13.75;;;10.32;;
33184;SDS011;19550;42.872;25.494;2023-04-25T03:39:59;13.93;;;10.50;;
33184;SDS011;19550;42.872;25.494;2023-04-25T03:42:26;17.30;;;11.02;;
33184;SDS011;19550;42.872;25.494;2023-04-25T03:44:52;13.98;;;10.60;;
33184;SDS011;19550;42.872;25.494;2023-04-25T03:47:19;16.08;;;10.75;;
33184;SDS011;19550;42.872;25.494;2023-04-25T03:49:46;16.42;;;11.82;;
33184;SDS011;19550;42.872;25.494;2023-04-25T03:52:14;15.38;;;11.95;;
33184;SDS011;19550;42.872;25.494;2023-04-25T03:54:41;16.20;;;11.75;;
33184;SDS011;19550;42.872;25.494;2023-04-25T03:57:09;18.83;;;14.13;;
33184;SDS011;19550;42.872;25.494;2023-04-25T03:59:36;20.20;;;13.07;;
33184;SDS011;19550;42.872;25.494;2023-04-25T04:02:03;18.75;;;12.18;;
33184;SDS011;19550;42.872;25.494;2023-04-25T04:04:30;17.88;;;12.23;;
33184;SDS011;19550;42.872;25.494;2023-04-25T04:06:56;17.15;;;13.23;;
33184;SDS011;19550;42.872;25.494;2023-04-25T04:09:23;16.77;;;12.70;;
33184;SDS011;19550;42.872;25.494;2023-04-25T04:11:50;14.98;;;11.82;;
33184;SDS011;19550;42.872;25.494;2023-04-25T04:14:19;20.20;;;13.98;;
33184;SDS011;19550;42.872;25.494;2023-04-25T04:16:45;16.58;;;13.07;;
33184;SDS011;19550;42.872;25.494;2023-04-25T04:19:12;14.70;;;11.93;;
33184;SDS011;19550;42.872;25.494;2023-04-25T04:21:40;12.43;;;10.95;;
33184;SDS011;19550;42.872;25.494;2023-04-25T04:24:07;19.42;;;11.73;;
33184;SDS011;19550;42.872;25.494;2023-04-25T04:26:35;18.48;;;14.20;;
33184;SDS011;19550;42.872;25.494;2023-04-25T04:29:04;20.52;;;12.50;;
33184;SDS011;19550;42.872;25.494;2023-04-25T04:31:34;18.85;;;13.45;;
33184;SDS011;19550;42.872;25.494;2023-04-25T04:34:01;18.65;;;12.95;;
33184;SDS011;19550;42.872;25.494;2023-04-25T04:36:29;15.15;;;11.65;;
33184;SDS011;19550;42.872;25.494;2023-04-25T04:38:56;15.10;;;12.30;;
33184;SDS011;19550;42.872;25.494;2023-04-25T04:41:22;15.32;;;11.95;;
33184;SDS011;19550;42.872;25.494;2023-04-25T04:43:49;21.55;;;15.32;;
33184;SDS011;19550;42.872;25.494;2023-04-25T04:46:18;21.75;;;15.73;;
33184;SDS011;19550;42.872;25.494;2023-04-25T04:48:46;23.33;;;18.15;;
33184;SDS011;19550;42.872;25.494;2023-04-25T04:51:13;25.20;;;18.52;;
33184;SDS011;19550;42.872;25.494;2023-04-25T04:53:40;25.35;;;20.52;;
33184;SDS011;19550;42.872;25.494;2023-04-25T04:56:07;21.23;;;15.98;;
33184;SDS011;19550;42.872;25.494;2023-04-25T04:58:33;17.13;;;14.10;;
33184;SDS011;19550;42.872;25.494;2023-04-25T05:01:01;11.68;;;10.25;;
33184;SDS011;19550;42.872;25.494;2023-04-25T05:03:28;13.13;;;9.25;;
33184;SDS011;19550;42.872;25.494;2023-04-25T05:05:56;13.23;;;11.02;;
33184;SDS011;19550;42.872;25.494;2023-04-25T05:08:23;18.23;;;10.63;;
33184;SDS011;19550;42.872;25.494;2023-04-25T05:10:50;20.40;;;14.65;;
33184;SDS011;19550;42.872;25.494;2023-04-25T05:13:17;18.33;;;13.23;;
33184;SDS011;19550;42.872;25.494;2023-04-25T05:15:43;15.95;;;11.13;;
33184;SDS011;19550;42.872;25.494;2023-04-25T05:18:10;12.73;;;9.75;;
33184;SDS011;19550;42.872;25.494;2023-04-25T05:20:37;10.70;;;9.18;;
33184;SDS011;19550;42.872;25.494;2023-04-25T05:23:05;12.95;;;9.75;;
33184;SDS011;19550;42.872;25.494;2023-04-25T05:25:32;14.75;;;10.32;;
33184;SDS011;19550;42.872;25.494;2023-04-25T05:27:59;21.35;;;17.05;;
33184;SDS011;19550;42.872;25.494;2023-04-25T05:30:26;26.48;;;21.38;;
33184;SDS011;19550;42.872;25.494;2023-04-25T05:32:52;28.35;;;21.40;;
33184;SDS011;19550;42.872;25.494;2023-04-25T05:35:19;25.95;;;20.55;;
33184;SDS011;19550;42.872;25.494;2023-04-25T05:37:46;27.23;;;20.30;;
33184;SDS011;19550;42.872;25.494;2023-04-25T05:40:14;25.90;;;20.50;;
33184;SDS011;19550;42.872;25.494;2023-04-25T05:42:41;29.88;;;20.40;;
33184;SDS011;19550;42.872;25.494;2023-04-25T05:45:08;22.80;;;18.83;;
33184;SDS011;19550;42.872;25.494;2023-04-25T05:47:35;29.05;;;21.42;;
33184;SDS011;19550;42.872;25.494;2023-04-25T05:50:02;33.28;;;22.13;;
33184;SDS011;19550;42.872;25.494;2023-04-25T05:52:30;30.02;;;22.17;;
33184;SDS011;19550;42.872;25.494;2023-04-25T05:54:56;26.85;;;18.77;;
33184;SDS011;19550;42.872;25.494;2023-04-25T05:57:25;22.88;;;17.52;;
33184;SDS011;19550;42.872;25.494;2023-04-25T05:59:53;27.20;;;17.80;;
33184;SDS011;19550;42.872;25.494;2023-04-25T06:02:20;25.23;;;17.95;;
33184;SDS011;19550;42.872;25.494;2023-04-25T06:04:47;34.67;;;17.50;;
33184;SDS011;19550;42.872;25.494;2023-04-25T06:07:15;25.35;;;17.88;;
33184;SDS011;19550;42.872;25.494;2023-04-25T06:09:42;24.65;;;19.17;;
33184;SDS011;19550;42.872;25.494;2023-04-25T06:12:09;19.48;;;16.27;;
33184;SDS011;19550;42.872;25.494;2023-04-25T06:14:37;23.55;;;14.80;;
33184;SDS011;19550;42.872;25.494;2023-04-25T06:17:04;16.90;;;12.25;;
33184;SDS011;19550;42.872;25.494;2023-04-25T06:19:33;23.43;;;17.07;;
33184;SDS011;19550;42.872;25.494;2023-04-25T06:22:00;26.42;;;19.02;;
33184;SDS011;19550;42.872;25.494;2023-04-25T06:24:27;25.20;;;17.80;;
33184;SDS011;19550;42.872;25.494;2023-04-25T06:26:54;27.77;;;17.73;;
33184;SDS011;19550;42.872;25.494;2023-04-25T06:29:21;20.77;;;14.98;;
33184;SDS011;19550;42.872;25.494;2023-04-25T06:31:50;31.85;;;16.17;;
33184;SDS011;19550;42.872;25.494;2023-04-25T06:34:16;22.88;;;16.92;;
33184;SDS011;19550;42.872;25.494;2023-04-25T06:36:43;19.75;;;16.27;;
33184;SDS011;19550;42.872;25.494;2023-04-25T06:39:10;20.45;;;15.73;;
33184;SDS011;19550;42.872;25.494;2023-04-25T06:41:37;19.35;;;14.45;;
33184;SDS011;19550;42.872;25.494;2023-04-25T06:44:04;18.30;;;14.77;;
33184;SDS011;19550;42.872;25.494;2023-04-25T06:46:31;21.85;;;14.38;;
33184;SDS011;19550;42.872;25.494;2023-04-25T06:48:59;11.52;;;7.93;;
33184;SDS011;19550;42.872;25.494;2023-04-25T06:51:27;11.88;;;6.70;;
33184;SDS011;19550;42.872;25.494;2023-04-25T06:53:55;12.45;;;7.60;;
33184;SDS011;19550;42.872;25.494;2023-04-25T06:56:22;12.18;;;7.75;;
33184;SDS011;19550;42.872;25.494;2023-04-25T06:58:49;11.07;;;7.03;;
33184;SDS011;19550;42.872;25.494;2023-04-25T07:01:16;13.93;;;8.00;;
33184;SDS011;19550;42.872;25.494;2023-04-25T07:03:43;10.15;;;7.70;;
33184;SDS011;19550;42.872;25.494;2023-04-25T07:06:11;11.90;;;6.95;;
33184;SDS011;19550;42.872;25.494;2023-04-25T07:08:38;10.38;;;6.43;;
33184;SDS011;19550;42.872;25.494;2023-04-25T07:11:04;8.85;;;6.45;;
33184;SDS011;19550;42.872;25.494;2023-04-25T07:13:31;10.50;;;7.20;;
33184;SDS011;19550;42.872;25.494;2023-04-25T07:15:58;9.43;;;6.53;;
33184;SDS011;19550;42.872;25.494;2023-04-25T07:18:26;11.35;;;8.93;;
33184;SDS011;19550;42.872;25.494;2023-04-25T07:20:52;15.40;;;11.25;;
33184;SDS011;19550;42.872;25.494;2023-04-25T07:23:20;16.30;;;11.48;;
33184;SDS011;19550;42.872;25.494;2023-04-25T07:25:47;18.23;;;12.95;;
33184;SDS011;19550;42.872;25.494;2023-04-25T07:28:14;18.77;;;12.65;;
33184;SDS011;19550;42.872;25.494;2023-04-25T07:30:41;22.67;;;12.18;;
33184;SDS011;19550;42.872;25.494;2023-04-25T07:33:08;12.82;;;7.80;;
33184;SDS011;19550;42.872;25.494;2023-04-25T07:35:35;16.58;;;7.40;;
33184;SDS011;19550;42.872;25.494;2023-04-25T07:38:01;15.10;;;8.77;;
33184;SDS011;19550;42.872;25.494;2023-04-25T07:40:30;15.00;;;6.90;;
33184;SDS011;19550;42.872;25.494;2023-04-25T07:42:57;8.20;;;4.85;;
33184;SDS011;19550;42.872;25.494;2023-04-25T07:45:23;8.02;;;5.22;;
33184;SDS011;19550;42.872;25.494;2023-04-25T07:47:50;10.20;;;6.72;;
33184;SDS011;19550;42.872;25.494;2023-04-25T07:50:17;10.90;;;5.45;;
33184;SDS011;19550;42.872;25.494;2023-04-25T07:52:44;10.27;;;4.63;;
33184;SDS011;19550;42.872;25.494;2023-04-25T07:55:10;3.42;;;2.50;;
33184;SDS011;19550;42.872;25.494;2023-04-25T07:57:39;4.13;;;1.95;;
33184;SDS011;19550;42.872;25.494;2023-04-25T08:00:06;2.55;;;1.88;;
33184;SDS011;19550;42.872;25.494;2023-04-25T08:02:37;1.98;;;1.63;;
33184;SDS011;19550;42.872;25.494;2023-04-25T08:05:04;3.33;;;1.70;;
33184;SDS011;19550;42.872;25.494;2023-04-25T08:07:33;3.50;;;1.80;;
33184;SDS011;19550;42.872;25.494;2023-04-25T08:10:00;2.92;;;1.77;;
33184;SDS011;19550;42.872;25.494;2023-04-25T08:12:26;1.63;;;1.52;;
33184;SDS011;19550;42.872;25.494;2023-04-25T08:14:55;4.45;;;2.08;;
33184;SDS011;19550;42.872;25.494;2023-04-25T08:17:21;4.15;;;1.85;;
33184;SDS011;19550;42.872;25.494;2023-04-25T08:19:48;3.25;;;2.22;;
33184;SDS011;19550;42.872;25.494;2023-04-25T08:22:15;5.68;;;2.58;;
33184;SDS011;19550;42.872;25.494;2023-04-25T08:24:42;5.25;;;2.60;;
33184;SDS011;19550;42.872;25.494;2023-04-25T08:27:09;3.45;;;2.72;;
33184;SDS011;19550;42.872;25.494;2023-04-25T08:29:36;3.97;;;1.90;;
33184;SDS011;19550;42.872;25.494;2023-04-25T08:32:04;1.75;;;1.60;;
33184;SDS011;19550;42.872;25.494;2023-04-25T08:34:31;2.25;;;1.58;;
33184;SDS011;19550;42.872;25.494;2023-04-25T08:36:58;2.90;;;1.50;;
33184;SDS011;19550;42.872;25.494;2023-04-25T08:39:25;4.53;;;1.92;;
33184;SDS011;19550;42.872;25.494;2023-04-25T08:41:51;4.35;;;1.73;;
33184;SDS011;19550;42.872;25.494;2023-04-25T08:44:19;3.75;;;2.00;;
33184;SDS011;19550;42.872;25.494;2023-04-25T08:46:47;2.90;;;2.05;;
33184;SDS011;19550;42.872;25.494;2023-04-25T08:49:17;2.55;;;1.90;;
33184;SDS011;19550;42.872;25.494;2023-04-25T08:51:45;4.13;;;1.80;;
33184;SDS011;19550;42.872;25.494;2023-04-25T08:54:13;5.65;;;3.00;;
33184;SDS011;19550;42.872;25.494;2023-04-25T08:56:41;4.72;;;3.35;;
33184;SDS011;19550;42.872;25.494;2023-04-25T08:59:11;5.13;;;1.92;;
33184;SDS011;19550;42.872;25.494;2023-04-25T09:01:38;3.17;;;2.58;;
33184;SDS011;19550;42.872;25.494;2023-04-25T09:04:05;2.75;;;1.77;;
33184;SDS011;19550;42.872;25.494;2023-04-25T09:06:33;4.00;;;2.85;;
33184;SDS011;19550;42.872;25.494;2023-04-25T09:09:02;5.35;;;2.78;;
33184;SDS011;19550;42.872;25.494;2023-04-25T09:11:30;7.45;;;2.72;;
33184;SDS011;19550;42.872;25.494;2023-04-25T09:14:09;2.58;;;2.35;;
33184;SDS011;19550;42.872;25.494;2023-04-25T09:16:51;5.85;;;2.40;;
33184;SDS011;19550;42.872;25.494;2023-04-25T09:19:25;6.78;;;2.25;;
33184;SDS011;19550;42.872;25.494;2023-04-25T09:21:54;2.88;;;1.65;;
33184;SDS011;19550;42.872;25.494;2023-04-25T09:24:35;4.13;;;2.25;;
33184;SDS011;19550;42.872;25.494;2023-04-25T09:27:03;2.88;;;2.13;;
33184;SDS011;19550;42.872;25.494;2023-04-25T09:29:31;4.70;;;2.10;;
33184;SDS011;19550;42.872;25.494;2023-04-25T09:32:17;2.30;;;2.10;;
33184;SDS011;19550;42.872;25.494;2023-04-25T09:34:46;5.18;;;2.55;;
33184;SDS011;19550;42.872;25.494;2023-04-25T09:37:18;2.38;;;2.17;;
33184;SDS011;19550;42.872;25.494;2023-04-25T09:42:13;5.18;;;1.40;;
33184;SDS011;19550;42.872;25.494;2023-04-25T09:44:43;6.30;;;1.67;;
33184;SDS011;19550;42.872;25.494;2023-04-25T09:47:11;2.75;;;1.80;;
33184;SDS011;19550;42.872;25.494;2023-04-25T09:49:40;17.08;;;2.50;;
33184;SDS011;19550;42.872;25.494;2023-04-25T09:52:08;2.38;;;1.88;;
33184;SDS011;19550;42.872;25.494;2023-04-25T09:54:37;7.40;;;1.90;;
33184;SDS011;19550;42.872;25.494;2023-04-25T09:57:06;5.30;;;2.20;;
33184;SDS011;19550;42.872;25.494;2023-04-25T09:59:38;8.32;;;2.65;;
33184;SDS011;19550;42.872;25.494;2023-04-25T10:02:06;6.47;;;2.55;;
33184;SDS011;19550;42.872;25.494;2023-04-25T10:04:34;3.97;;;2.47;;
33184;SDS011;19550;42.872;25.494;2023-04-25T10:07:02;3.40;;;2.67;;
33184;SDS011;19550;42.872;25.494;2023-04-25T10:09:31;4.75;;;2.92;;
33184;SDS011;19550;42.872;25.494;2023-04-25T10:12:01;5.72;;;3.17;;
33184;SDS011;19550;42.872;25.494;2023-04-25T10:14:29;8.73;;;3.97;;
33184;SDS011;19550;42.872;25.494;2023-04-25T10:16:57;5.55;;;3.40;;
33184;SDS011;19550;42.872;25.494;2023-04-25T10:19:24;6.38;;;2.83;;
33184;SDS011;19550;42.872;25.494;2023-04-25T10:21:52;8.18;;;3.45;;
33184;SDS011;19550;42.872;25.494;2023-04-25T10:24:23;6.88;;;3.90;;
33184;SDS011;19550;42.872;25.494;2023-04-25T10:26:51;5.25;;;3.90;;
33184;SDS011;19550;42.872;25.494;2023-04-25T10:29:23;9.38;;;3.65;;
33184;SDS011;19550;42.872;25.494;2023-04-25T10:31:51;5.10;;;2.60;;
33184;SDS011;19550;42.872;25.494;2023-04-25T10:34:18;4.60;;;2.90;;
33184;SDS011;19550;42.872;25.494;2023-04-25T10:36:50;3.85;;;3.20;;
33184;SDS011;19550;42.872;25.494;2023-04-25T10:39:21;5.75;;;3.78;;
33184;SDS011;19550;42.872;25.494;2023-04-25T10:41:52;4.63;;;3.13;;
33184;SDS011;19550;42.872;25.494;2023-04-25T10:44:19;5.75;;;3.55;;
33184;SDS011;19550;42.872;25.494;2023-04-25T10:46:48;4.93;;;3.45;;
33184;SDS011;19550;42.872;25.494;2023-04-25T10:52:12;4.95;;;3.53;;
33184;SDS011;19550;42.872;25.494;2023-04-25T10:54:47;6.00;;;3.15;;
33184;SDS011;19550;42.872;25.494;2023-04-25T10:57:31;6.05;;;3.35;;
33184;SDS011;19550;42.872;25.494;2023-04-25T11:00:05;8.98;;;4.68;;
33184;SDS011;19550;42.872;25.494;2023-04-25T11:02:44;10.43;;;4.95;;
33184;SDS011;19550;42.872;25.494;2023-04-25T11:05:16;10.68;;;5.53;;
33184;SDS011;19550;42.872;25.494;2023-04-25T11:07:50;7.78;;;5.78;;
33184;SDS011;19550;42.872;25.494;2023-04-25T11:10:19;10.10;;;5.35;;
33184;SDS011;19550;42.872;25.494;2023-04-25T11:12:46;9.98;;;3.78;;
33184;SDS011;19550;42.872;25.494;2023-04-25T11:15:13;13.02;;;7.60;;
33184;SDS011;19550;42.872;25.494;2023-04-25T11:17:40;12.57;;;8.43;;
33184;SDS011;19550;42.872;25.494;2023-04-25T11:20:10;12.57;;;7.95;;
33184;SDS011;19550;42.872;25.494;2023-04-25T11:22:39;20.40;;;13.45;;
33184;SDS011;19550;42.872;25.494;2023-04-25T11:25:07;11.98;;;6.75;;
33184;SDS011;19550;42.872;25.494;2023-04-25T11:27:37;7.32;;;5.10;;
33184;SDS011;19550;42.872;25.494;2023-04-25T11:30:12;9.40;;;3.65;;
33184;SDS011;19550;42.872;25.494;2023-04-25T11:32:41;5.75;;;2.60;;
33184;SDS011;19550;42.872;25.494;2023-04-25T11:35:09;5.15;;;2.75;;
33184;SDS011;19550;42.872;25.494;2023-04-25T11:37:37;5.20;;;2.65;;
33184;SDS011;19550;42.872;25.494;2023-04-25T11:40:05;3.70;;;3.00;;
33184;SDS011;19550;42.872;25.494;2023-04-25T11:42:36;8.18;;;2.65;;
33184;SDS011;19550;42.872;25.494;2023-04-25T11:45:03;3.90;;;2.40;;
33184;SDS011;19550;42.872;25.494;2023-04-25T11:47:31;5.10;;;2.60;;
33184;SDS011;19550;42.872;25.494;2023-04-25T11:49:59;4.25;;;3.08;;
33184;SDS011;19550;42.872;25.494;2023-04-25T11:52:36;4.63;;;2.30;;
33184;SDS011;19550;42.872;25.494;2023-04-25T11:55:04;2.40;;;2.20;;
33184;SDS011;19550;42.872;25.494;2023-04-25T11:57:32;5.07;;;2.88;;
33184;SDS011;19550;42.872;25.494;2023-04-25T12:00:09;2.97;;;2.35;;
33184;SDS011;19550;42.872;25.494;2023-04-25T12:02:42;5.68;;;3.35;;
33184;SDS011;19550;42.872;25.494;2023-04-25T12:05:09;7.20;;;3.75;;
33184;SDS011;19550;42.872;25.494;2023-04-25T12:07:38;7.50;;;3.10;;
33184;SDS011;19550;42.872;25.494;2023-04-25T12:10:07;6.30;;;3.33;;
33184;SDS011;19550;42.872;25.494;2023-04-25T12:12:35;8.02;;;3.22;;
33184;SDS011;19550;42.872;25.494;2023-04-25T12:15:09;6.68;;;3.40;;
33184;SDS011;19550;42.872;25.494;2023-04-25T12:17:38;5.53;;;3.42;;
33184;SDS011;19550;42.872;25.494;2023-04-25T12:20:05;13.02;;;7.57;;
33184;SDS011;19550;42.872;25.494;2023-04-25T12:22:34;12.23;;;7.97;;
33184;SDS011;19550;42.872;25.494;2023-04-25T12:25:03;9.60;;;4.45;;
33184;SDS011;19550;42.872;25.494;2023-04-25T12:27:31;9.95;;;4.03;;
33184;SDS011;19550;42.872;25.494;2023-04-25T12:29:58;6.45;;;3.90;;
33184;SDS011;19550;42.872;25.494;2023-04-25T12:32:25;6.82;;;3.40;;
33184;SDS011;19550;42.872;25.494;2023-04-25T12:34:52;5.63;;;3.10;;
33184;SDS011;19550;42.872;25.494;2023-04-25T12:37:19;11.07;;;3.40;;
33184;SDS011;19550;42.872;25.494;2023-04-25T12:39:46;15.85;;;14.30;;
33184;SDS011;19550;42.872;25.494;2023-04-25T12:42:14;8.07;;;7.25;;
33184;SDS011;19550;42.872;25.494;2023-04-25T12:44:40;8.98;;;5.32;;
33184;SDS011;19550;42.872;25.494;2023-04-25T12:47:07;7.10;;;4.88;;
33184;SDS011;19550;42.872;25.494;2023-04-25T12:49:34;10.10;;;5.72;;
33184;SDS011;19550;42.872;25.494;2023-04-25T12:52:01;9.85;;;5.68;;
33184;SDS011;19550;42.872;25.494;2023-04-25T12:54:28;7.68;;;6.88;;
33184;SDS011;19550;42.872;25.494;2023-04-25T12:56:55;7.32;;;4.53;;
33184;SDS011;19550;42.872;25.494;2023-04-25T12:59:23;5.85;;;3.22;;
33184;SDS011;19550;42.872;25.494;2023-04-25T13:01:50;2.88;;;2.28;;
33184;SDS011;19550;42.872;25.494;2023-04-25T13:04:17;6.82;;;3.10;;
33184;SDS011;19550;42.872;25.494;2023-04-25T13:06:46;12.00;;;5.57;;
33184;SDS011;19550;42.872;25.494;2023-04-25T13:09:12;5.13;;;3.97;;
33184;SDS011;19550;42.872;25.494;2023-04-25T13:11:40;13.20;;;5.80;;
33184;SDS011;19550;42.872;25.494;2023-04-25T13:14:07;8.75;;;4.70;;
33184;SDS011;19550;42.872;25.494;2023-04-25T13:16:35;9.77;;;3.80;;
33184;SDS011;19550;42.872;25.494;2023-04-25T13:19:02;3.83;;;2.40;;
33184;SDS011;19550;42.872;25.494;2023-04-25T13:21:29;16.08;;;2.92;;
33184;SDS011;19550;42.872;25.494;2023-04-25T13:23:57;9.80;;;3.03;;
33184;SDS011;19550;42.872;25.494;2023-04-25T13:26:25;6.70;;;3.00;;
33184;SDS011;19550;42.872;25.494;2023-04-25T13:28:52;8.98;;;2.65;;
33184;SDS011;19550;42.872;25.494;2023-04-25T13:31:19;67.18;;;36.40;;
33184;SDS011;19550;42.872;25.494;2023-04-25T13:33:47;45.45;;;27.88;;
33184;SDS011;19550;42.872;25.494;2023-04-25T13:36:14;17.73;;;8.40;;
33184;SDS011;19550;42.872;25.494;2023-04-25T13:38:41;16.90;;;10.13;;
33184;SDS011;19550;42.872;25.494;2023-04-25T13:41:09;10.73;;;7.03;;
33184;SDS011;19550;42.872;25.494;2023-04-25T13:43:36;10.05;;;6.25;;
33184;SDS011;19550;42.872;25.494;2023-04-25T13:46:03;11.80;;;6.28;;
33184;SDS011;19550;42.872;25.494;2023-04-25T13:48:30;13.80;;;7.65;;
33184;SDS011;19550;42.872;25.494;2023-04-25T13:50:58;19.27;;;8.93;;
33184;SDS011;19550;42.872;25.494;2023-04-25T13:53:25;29.60;;;11.70;;
33184;SDS011;19550;42.872;25.494;2023-04-25T13:55:51;5.80;;;3.70;;
33184;SDS011;19550;42.872;25.494;2023-04-25T13:58:18;11.10;;;4.40;;
33184;SDS011;19550;42.872;25.494;2023-04-25T14:00:46;9.68;;;4.25;;
33184;SDS011;19550;42.872;25.494;2023-04-25T14:03:12;5.00;;;3.92;;
33184;SDS011;19550;42.872;25.494;2023-04-25T14:05:39;11.50;;;7.03;;
33184;SDS011;19550;42.872;25.494;2023-04-25T14:08:08;8.07;;;5.50;;
33184;SDS011;19550;42.872;25.494;2023-04-25T14:10:36;9.23;;;5.40;;
33184;SDS011;19550;42.872;25.494;2023-04-25T14:13:03;8.07;;;5.47;;
33184;SDS011;19550;42.872;25.494;2023-04-25T14:15:31;8.32;;;4.22;;
33184;SDS011;19550;42.872;25.494;2023-04-25T14:17:58;4.53;;;2.63;;
33184;SDS011;19550;42.872;25.494;2023-04-25T14:20:25;4.25;;;3.30;;
33184;SDS011;19550;42.872;25.494;2023-04-25T14:22:52;8.65;;;3.92;;
33184;SDS011;19550;42.872;25.494;2023-04-25T14:25:22;5.75;;;3.90;;
33184;SDS011;19550;42.872;25.494;2023-04-25T14:27:49;5.20;;;2.92;;
33184;SDS011;19550;42.872;25.494;2023-04-25T14:30:16;13.30;;;7.90;;